Time;durP1;ratioP1;P1;durP2;ratioP2;P2;SDS_P1;SDS_P2;PMS_P1;PMS_P2;Temp;Humidity;BMP_temperature;BMP_pressure;BME280_temperature;BME280_humidity;BME280_pressure;Samples;Min_cycle;Max_cycle;Signal;HPM_P1;HPM_P2
2022/05/24 00:01:56;;;;;;;;;;;15.30;99.90;;;;;;4975285;28;20296;-82
2022/05/24 00:04:22;;;;;;;;;;;15.30;99.90;;;;;;4975364;28;19997;-82
2022/05/24 00:06:48;;;;;;;;;;;15.40;99.90;;;;;;4975480;28;19969;-82
2022/05/24 00:09:13;;;;;;;;;;;15.30;99.90;;;;;;4976146;28;19907;-83
2022/05/24 00:11:39;;;;;;;;;;;15.30;99.90;;;;;;4975333;28;20337;-83
2022/05/24 00:14:04;;;;;;;;;;;15.30;99.90;;;;;;4975327;28;19910;-83
2022/05/24 00:16:30;;;;;;;;;;;15.30;99.90;;;;;;4975225;28;19910;-82
2022/05/24 00:18:56;;;;;;;;;;;15.30;99.90;;;;;;4975156;28;20262;-82
2022/05/24 00:21:22;;;;;;;;;;;15.30;99.90;;;;;;4974985;28;19918;-83
2022/05/24 00:23:47;;;;;;;;;;;15.30;99.90;;;;;;4975069;28;20350;-83
2022/05/24 00:26:17;;;;;;;;;;;15.30;99.90;;;;;;4975172;28;19910;-82
2022/05/24 00:28:42;;;;;;;;;;;15.30;99.90;;;;;;4975078;28;19910;-82
2022/05/24 00:31:08;;;;;;;;;;;15.30;99.90;;;;;;4975037;28;20325;-82
2022/05/24 00:33:34;;;;;;;;;;;15.30;99.90;;;;;;4974733;28;19937;-83
2022/05/24 00:36:00;;;;;;;;;;;15.30;99.90;;;;;;4974346;28;19914;-83
2022/05/24 00:38:30;;;;;;;;;;;15.40;99.90;;;;;;4974885;28;19965;-83
2022/05/24 00:41:14;;;;;;;;;;;15.30;99.90;;;;;;4974626;28;19929;-83
2022/05/24 00:43:43;;;;;;;;;;;15.10;99.90;;;;;;4975077;28;19918;-83
2022/05/24 00:46:13;;;;;;;;;;;15.00;99.90;;;;;;4975046;28;19953;-83
2022/05/24 00:48:50;;;;;;;;;;;14.90;99.90;;;;;;4974914;28;19932;-83
2022/05/24 00:51:20;;;;;;;;;;;14.90;99.90;;;;;;4975024;28;19914;-83
2022/05/24 00:53:48;;;;;;;;;;;14.80;99.90;;;;;;4974931;28;19969;-83
2022/05/24 00:56:17;;;;;;;;;;;14.80;99.90;;;;;;4975220;28;19919;-83
2022/05/24 00:58:49;;;;;;;;;;;14.80;99.90;;;;;;4974672;28;20000;-82
2022/05/24 01:01:23;;;;;;;;;;;14.80;99.90;;;;;;4974651;28;19925;-83
2022/05/24 01:03:48;;;;;;;;;;;14.80;99.90;;;;;;4974737;28;19910;-83
2022/05/24 01:06:14;;;;;;;;;;;14.90;99.90;;;;;;4974757;28;19956;-83
2022/05/24 01:08:41;;;;;;;;;;;14.80;99.90;;;;;;4974952;28;19914;-83
2022/05/24 01:11:08;;;;;;;;;;;14.80;99.90;;;;;;4974519;28;20387;-83
2022/05/24 01:13:33;;;;;;;;;;;14.90;99.90;;;;;;4974848;28;19914;-83
2022/05/24 01:15:59;;;;;;;;;;;15.00;99.90;;;;;;4974462;28;20263;-83
2022/05/24 01:18:25;;;;;;;;;;;15.00;99.90;;;;;;4974917;28;19921;-83
2022/05/24 01:20:55;;;;;;;;;;;15.00;99.90;;;;;;4974697;28;20294;-82
2022/05/24 01:23:21;;;;;;;;;;;15.00;99.90;;;;;;4974762;28;19911;-83
2022/05/24 01:25:51;;;;;;;;;;;15.10;99.90;;;;;;4975415;28;19937;-83
2022/05/24 01:28:23;;;;;;;;;;;15.10;99.90;;;;;;4974688;28;19957;-83
2022/05/24 01:30:49;;;;;;;;;;;15.10;99.90;;;;;;4956978;28;19957;-83
2022/05/24 01:36:11;;;;;;;;;;;15.20;99.90;;;;;;4974628;28;19964;-83
2022/05/24 01:38:43;;;;;;;;;;;15.20;99.90;;;;;;4974445;28;19910;-83
2022/05/24 01:41:11;;;;;;;;;;;15.10;99.90;;;;;;4974177;28;19922;-82
2022/05/24 01:43:37;;;;;;;;;;;15.10;99.90;;;;;;4974327;28;20009;-83
2022/05/24 01:46:05;;;;;;;;;;;15.10;99.90;;;;;;4975691;28;19918;-83
2022/05/24 01:48:37;;;;;;;;;;;15.10;99.90;;;;;;4977788;28;19910;-83
2022/05/24 01:51:04;;;;;;;;;;;15.10;99.90;;;;;;4977676;28;19911;-83
2022/05/24 01:53:32;;;;;;;;;;;15.20;99.90;;;;;;4977905;28;19910;-83
2022/05/24 01:55:59;;;;;;;;;;;15.30;99.90;;;;;;4978076;28;20362;-83
2022/05/24 01:58:27;;;;;;;;;;;15.30;99.90;;;;;;4978735;28;19950;-83
2022/05/24 02:00:58;;;;;;;;;;;15.30;99.90;;;;;;4977783;28;19926;-82
2022/05/24 02:03:24;;;;;;;;;;;15.30;99.90;;;;;;4977714;28;20285;-82
2022/05/24 02:05:49;;;;;;;;;;;15.30;99.90;;;;;;4977414;28;19910;-83
2022/05/24 02:08:15;;;;;;;;;;;15.30;99.90;;;;;;4977351;28;19920;-83
2022/05/24 02:10:40;;;;;;;;;;;15.20;99.90;;;;;;4977291;28;19910;-83
2022/05/24 02:13:06;;;;;;;;;;;15.20;99.90;;;;;;4977777;28;20352;-82
2022/05/24 02:15:33;;;;;;;;;;;15.20;99.90;;;;;;4977635;28;19957;-83
2022/05/24 02:18:10;;;;;;;;;;;15.20;99.90;;;;;;4959872;28;19910;-83
2022/05/24 02:20:38;;;;;;;;;;;15.10;99.90;;;;;;4977461;28;20005;-83
2022/05/24 02:23:04;;;;;;;;;;;15.20;99.90;;;;;;4977358;28;19910;-83
2022/05/24 02:25:30;;;;;;;;;;;15.20;99.90;;;;;;4977311;28;20445;-83
2022/05/24 02:27:56;;;;;;;;;;;15.20;99.90;;;;;;4976889;28;19910;-83
2022/05/24 02:30:23;;;;;;;;;;;15.10;99.90;;;;;;4977224;28;19916;-83
2022/05/24 02:32:49;;;;;;;;;;;15.10;99.90;;;;;;4959436;28;19911;-83
2022/05/24 02:35:15;;;;;;;;;;;15.10;99.90;;;;;;4977359;28;19921;-83
2022/05/24 02:37:41;;;;;;;;;;;15.10;99.90;;;;;;4977012;28;19918;-82
2022/05/24 02:42:51;;;;;;;;;;;15.10;99.90;;;;;;4976752;28;19917;-83
2022/05/24 02:45:16;;;;;;;;;;;15.10;99.90;;;;;;4976720;28;19911;-83
2022/05/24 02:47:42;;;;;;;;;;;15.10;99.90;;;;;;4976981;28;20373;-83
2022/05/24 02:50:11;;;;;;;;;;;15.10;99.90;;;;;;4976627;28;20005;-83
2022/05/24 02:52:40;;;;;;;;;;;15.00;99.90;;;;;;4976769;28;19910;-82
2022/05/24 02:55:10;;;;;;;;;;;15.00;99.90;;;;;;4976622;28;19942;-83
2022/05/24 02:57:36;;;;;;;;;;;15.00;99.90;;;;;;4976001;28;20019;-83
2022/05/24 03:00:04;;;;;;;;;;;15.00;99.90;;;;;;4976540;28;19918;-83
2022/05/24 03:02:29;;;;;;;;;;;15.00;99.90;;;;;;4976245;28;19914;-83
2022/05/24 03:04:55;;;;;;;;;;;15.00;99.90;;;;;;4976575;28;19910;-83
2022/05/24 03:10:04;;;;;;;;;;;15.00;99.90;;;;;;4976538;28;20353;-83
2022/05/24 03:15:15;;;;;;;;;;;15.00;99.90;;;;;;4976694;28;20035;-83
2022/05/24 03:17:40;;;;;;;;;;;15.00;99.90;;;;;;4976231;28;19914;-83
2022/05/24 03:20:06;;;;;;;;;;;15.10;99.90;;;;;;4978696;28;19914;-82
2022/05/24 03:22:31;;;;;;;;;;;15.00;99.90;;;;;;4976037;28;19950;-83
2022/05/24 03:24:57;;;;;;;;;;;15.00;99.90;;;;;;4976105;28;19910;-83
2022/05/24 03:27:23;;;;;;;;;;;15.10;99.90;;;;;;4976215;28;19910;-83
2022/05/24 03:29:49;;;;;;;;;;;15.00;99.90;;;;;;4976209;28;20346;-83
2022/05/24 03:32:15;;;;;;;;;;;15.00;99.90;;;;;;4975964;28;19960;-82
2022/05/24 03:34:41;;;;;;;;;;;15.00;99.90;;;;;;4976066;28;19910;-83
2022/05/24 03:37:06;;;;;;;;;;;15.00;99.90;;;;;;4975851;28;19910;-83
2022/05/24 03:39:32;;;;;;;;;;;15.00;99.90;;;;;;4975921;28;19980;-83
2022/05/24 03:41:58;;;;;;;;;;;15.00;99.90;;;;;;4975741;28;19918;-83
2022/05/24 03:44:24;;;;;;;;;;;14.90;99.90;;;;;;4974559;28;19910;-82
2022/05/24 03:46:49;;;;;;;;;;;15.00;99.90;;;;;;4975927;28;20276;-83
2022/05/24 03:49:15;;;;;;;;;;;14.90;99.90;;;;;;4975808;28;20389;-83
2022/05/24 03:51:41;;;;;;;;;;;15.00;99.90;;;;;;4979351;28;19918;-83
2022/05/24 03:54:06;;;;;;;;;;;14.90;99.90;;;;;;4975498;28;20259;-83
2022/05/24 03:56:36;;;;;;;;;;;14.90;99.90;;;;;;4979345;28;19933;-83
2022/05/24 03:59:02;;;;;;;;;;;14.90;99.90;;;;;;4958315;28;19957;-83
2022/05/24 04:01:27;;;;;;;;;;;14.90;99.90;;;;;;4975399;28;19952;-83
2022/05/24 04:03:53;;;;;;;;;;;14.90;99.90;;;;;;4975649;28;19914;-83
2022/05/24 04:06:18;;;;;;;;;;;14.90;99.90;;;;;;4975566;28;19910;-83
2022/05/24 04:08:45;;;;;;;;;;;15.00;99.90;;;;;;4975116;28;19913;-83
2022/05/24 04:11:11;;;;;;;;;;;15.00;99.90;;;;;;4975287;28;19961;-83
2022/05/24 04:13:37;;;;;;;;;;;15.10;99.90;;;;;;4977774;28;19910;-84
2022/05/24 04:16:04;;;;;;;;;;;15.00;99.90;;;;;;4974969;28;19911;-83
2022/05/24 04:18:29;;;;;;;;;;;15.10;99.90;;;;;;4975459;28;19933;-83
2022/05/24 04:20:55;;;;;;;;;;;15.10;99.90;;;;;;4975222;28;20374;-83
2022/05/24 04:23:21;;;;;;;;;;;15.10;99.90;;;;;;4975188;28;19933;-83
2022/05/24 04:25:47;;;;;;;;;;;15.10;99.90;;;;;;4975128;28;19910;-83
2022/05/24 04:28:13;;;;;;;;;;;15.20;99.90;;;;;;4975117;28;20008;-83
2022/05/24 04:30:39;;;;;;;;;;;15.20;99.90;;;;;;4975055;28;19942;-83
2022/05/24 04:33:04;;;;;;;;;;;15.10;99.90;;;;;;4974960;28;19921;-83
2022/05/24 04:35:30;;;;;;;;;;;15.20;99.90;;;;;;4973679;28;19917;-83
2022/05/24 04:37:56;;;;;;;;;;;15.20;99.90;;;;;;4974773;28;20310;-83
2022/05/24 04:42:18;;;;;;;;;;;15.10;99.90;;;;;;4974854;28;19922;-83
2022/05/24 04:43:07;;;;;;;;;;;15.10;99.90;;;;;;4974759;28;20001;-83
2022/05/24 04:45:32;;;;;;;;;;;15.10;99.90;;;;;;4974867;28;19948;-83
2022/05/24 04:47:58;;;;;;;;;;;15.00;99.90;;;;;;4975006;28;20310;-83
2022/05/24 04:50:24;;;;;;;;;;;15.00;99.90;;;;;;4957303;28;20009;-83
2022/05/24 04:52:49;;;;;;;;;;;15.10;99.90;;;;;;4974621;28;20278;-83
2022/05/24 04:55:15;;;;;;;;;;;15.10;99.90;;;;;;4974816;28;20298;-83
2022/05/24 04:57:40;;;;;;;;;;;15.10;99.90;;;;;;4974782;28;19910;-83
2022/05/24 05:00:07;;;;;;;;;;;15.10;99.90;;;;;;4974991;28;20012;-83
2022/05/24 05:02:32;;;;;;;;;;;15.10;99.90;;;;;;4974779;28;19920;-83
2022/05/24 05:04:58;;;;;;;;;;;15.10;99.90;;;;;;4974754;28;19910;-83
2022/05/24 05:07:23;;;;;;;;;;;15.10;99.90;;;;;;4974667;28;19911;-82
2022/05/24 05:09:50;;;;;;;;;;;15.10;99.90;;;;;;4974466;28;19910;-83
2022/05/24 05:12:16;;;;;;;;;;;15.10;99.90;;;;;;4974623;28;19927;-83
2022/05/24 05:14:42;;;;;;;;;;;15.10;99.90;;;;;;4974608;28;20018;-83
2022/05/24 05:17:07;;;;;;;;;;;15.10;99.90;;;;;;4974719;28;19910;-83
2022/05/24 05:19:33;;;;;;;;;;;15.20;99.90;;;;;;4974789;28;19917;-83
2022/05/24 05:21:59;;;;;;;;;;;15.30;99.90;;;;;;4977313;28;19946;-83
2022/05/24 05:24:25;;;;;;;;;;;15.30;99.90;;;;;;4978329;28;20004;-84
2022/05/24 05:26:50;;;;;;;;;;;15.30;99.90;;;;;;4978070;28;20005;-85
2022/05/24 05:31:16;;;;;;;;;;;15.40;99.90;;;;;;4963991;28;20389;-84
2022/05/24 05:32:02;;;;;;;;;;;15.50;99.90;;;;;;4981009;28;19917;-84
2022/05/24 05:34:27;;;;;;;;;;;15.40;99.90;;;;;;4979307;28;19910;-84
2022/05/24 05:36:53;;;;;;;;;;;15.40;99.90;;;;;;4980950;28;19910;-84
2022/05/24 05:39:18;;;;;;;;;;;15.40;99.90;;;;;;4982058;28;19914;-84
2022/05/24 05:41:44;;;;;;;;;;;15.40;99.90;;;;;;4983239;28;19914;-84
2022/05/24 05:44:09;;;;;;;;;;;15.40;99.90;;;;;;4979706;28;19911;-84
2022/05/24 05:46:35;;;;;;;;;;;15.40;99.90;;;;;;4978584;28;19910;-84
2022/05/24 05:49:00;;;;;;;;;;;15.50;99.90;;;;;;4979472;28;20259;-84
2022/05/24 05:51:26;;;;;;;;;;;15.50;99.90;;;;;;4978229;28;19910;-84
2022/05/24 05:53:51;;;;;;;;;;;15.40;99.90;;;;;;4976492;28;19917;-84
2022/05/24 05:56:21;;;;;;;;;;;15.40;99.90;;;;;;4976947;28;19910;-84
2022/05/24 05:58:48;;;;;;;;;;;15.50;99.90;;;;;;4978015;28;19917;-84
2022/05/24 06:01:18;;;;;;;;;;;15.60;99.90;;;;;;4977485;28;19957;-83
2022/05/24 06:03:44;;;;;;;;;;;15.70;99.90;;;;;;4977291;28;19917;-84
2022/05/24 06:06:10;;;;;;;;;;;15.80;99.90;;;;;;4977724;28;19911;-83
2022/05/24 06:08:36;;;;;;;;;;;15.90;99.90;;;;;;4977545;28;19916;-83
2022/05/24 06:11:02;;;;;;;;;;;16.20;99.90;;;;;;4977543;28;20001;-83
2022/05/24 06:13:28;;;;;;;;;;;16.20;99.90;;;;;;4977481;28;19918;-84
2022/05/24 06:15:55;;;;;;;;;;;16.30;99.90;;;;;;4977424;28;19965;-84
2022/05/24 06:18:20;;;;;;;;;;;16.40;99.90;;;;;;4977440;28;19938;-84
2022/05/24 06:20:46;;;;;;;;;;;16.50;99.90;;;;;;4975884;28;19925;-84
2022/05/24 06:23:11;;;;;;;;;;;16.60;99.90;;;;;;4977127;28;19933;-84
2022/05/24 06:25:39;;;;;;;;;;;16.60;99.90;;;;;;4977110;28;19910;-84
2022/05/24 06:28:05;;;;;;;;;;;16.50;99.90;;;;;;4977698;28;19968;-84
2022/05/24 06:30:31;;;;;;;;;;;16.50;99.90;;;;;;4977014;28;19910;-84
2022/05/24 06:32:57;;;;;;;;;;;16.50;99.90;;;;;;4958480;28;19910;-84
2022/05/24 06:35:22;;;;;;;;;;;16.40;99.90;;;;;;4977141;28;19954;-84
2022/05/24 06:37:48;;;;;;;;;;;16.40;99.90;;;;;;4977513;28;19956;-84
2022/05/24 06:40:16;;;;;;;;;;;16.40;99.90;;;;;;4976573;28;20005;-84
2022/05/24 06:42:41;;;;;;;;;;;16.40;99.90;;;;;;4976771;28;20027;-84
2022/05/24 06:45:08;;;;;;;;;;;16.40;99.90;;;;;;4976690;28;20045;-84
2022/05/24 06:47:34;;;;;;;;;;;16.40;99.90;;;;;;4977172;28;19981;-83
2022/05/24 06:49:59;;;;;;;;;;;16.40;99.90;;;;;;4976775;28;20349;-84
2022/05/24 06:52:25;;;;;;;;;;;16.50;99.90;;;;;;4976844;28;20009;-84
2022/05/24 06:54:53;;;;;;;;;;;16.70;99.90;;;;;;4976671;28;19945;-84
2022/05/24 06:57:18;;;;;;;;;;;16.90;99.90;;;;;;4977059;28;19917;-84
2022/05/24 07:02:28;;;;;;;;;;;17.10;99.90;;;;;;4976788;28;19928;-84
2022/05/24 07:05:00;;;;;;;;;;;17.30;99.90;;;;;;4976285;28;20365;-83
2022/05/24 07:07:26;;;;;;;;;;;17.40;99.90;;;;;;4976763;28;19914;-84
2022/05/24 07:09:52;;;;;;;;;;;17.50;99.90;;;;;;4976584;28;20380;-84
2022/05/24 07:12:21;;;;;;;;;;;17.70;99.90;;;;;;4976308;28;19957;-84
2022/05/24 07:14:47;;;;;;;;;;;17.80;99.90;;;;;;4976367;28;19917;-84
2022/05/24 07:17:13;;;;;;;;;;;17.70;99.90;;;;;;4976246;28;20009;-84
2022/05/24 07:19:38;;;;;;;;;;;17.60;99.90;;;;;;4976252;28;19993;-84
2022/05/24 07:22:07;;;;;;;;;;;17.70;99.90;;;;;;4976175;28;19918;-84
2022/05/24 07:24:32;;;;;;;;;;;17.80;99.90;;;;;;4976095;28;19910;-84
2022/05/24 07:26:58;;;;;;;;;;;17.80;99.90;;;;;;4975954;28;19956;-84
2022/05/24 07:29:24;;;;;;;;;;;17.80;99.90;;;;;;4975903;28;19910;-84
2022/05/24 07:31:50;;;;;;;;;;;17.90;99.90;;;;;;4976088;28;20329;-84
2022/05/24 07:34:15;;;;;;;;;;;18.00;99.90;;;;;;4976052;28;19961;-84
2022/05/24 07:36:41;;;;;;;;;;;18.00;99.90;;;;;;4976423;28;19917;-84
2022/05/24 07:39:06;;;;;;;;;;;18.00;99.90;;;;;;4975911;28;20289;-84
2022/05/24 07:47:02;;;;;;;;;;;17.80;99.90;;;;;;4975594;28;20012;-84
2022/05/24 07:49:28;;;;;;;;;;;17.90;99.90;;;;;;4975549;28;20425;-84
2022/05/24 07:51:54;;;;;;;;;;;18.00;99.90;;;;;;4975734;28;19950;-84
2022/05/24 07:54:19;;;;;;;;;;;18.10;99.90;;;;;;4974397;28;19910;-84
2022/05/24 07:56:45;;;;;;;;;;;18.30;99.90;;;;;;4975521;28;19918;-83
2022/05/24 07:59:10;;;;;;;;;;;18.30;99.90;;;;;;4975443;28;19910;-83
2022/05/24 08:01:36;;;;;;;;;;;18.30;99.90;;;;;;4975487;28;19918;-84
2022/05/24 08:04:03;;;;;;;;;;;18.30;99.90;;;;;;4975483;28;20007;-84
2022/05/24 08:06:28;;;;;;;;;;;18.30;99.90;;;;;;4975555;28;19914;-83
2022/05/24 08:08:54;;;;;;;;;;;18.30;99.90;;;;;;4975319;28;19957;-84
2022/05/24 08:11:20;;;;;;;;;;;18.20;99.90;;;;;;4975182;28;19911;-84
2022/05/24 08:13:45;;;;;;;;;;;18.00;99.90;;;;;;4975279;28;19910;-84
2022/05/24 08:16:11;;;;;;;;;;;18.00;99.90;;;;;;4975280;28;20259;-84
2022/05/24 08:18:36;;;;;;;;;;;18.10;99.90;;;;;;4975183;28;20255;-84
2022/05/24 08:21:02;;;;;;;;;;;18.20;99.90;;;;;;4975155;28;20440;-84
2022/05/24 08:23:28;;;;;;;;;;;18.00;99.90;;;;;;4975168;28;19914;-84
2022/05/24 08:25:54;;;;;;;;;;;17.70;99.90;;;;;;4975197;28;20008;-84
2022/05/24 08:28:19;;;;;;;;;;;17.50;99.90;;;;;;4973610;28;19914;-84
2022/05/24 08:30:46;;;;;;;;;;;17.30;99.90;;;;;;4974953;28;19968;-84
2022/05/24 08:33:13;;;;;;;;;;;16.90;99.90;;;;;;4975367;28;19914;-85
2022/05/24 08:35:38;;;;;;;;;;;16.70;99.90;;;;;;4975017;28;19910;-84
2022/05/24 08:38:05;;;;;;;;;;;16.50;99.90;;;;;;4957739;28;19917;-84
2022/05/24 08:40:33;;;;;;;;;;;16.40;99.90;;;;;;4974788;28;19961;-84
2022/05/24 08:43:09;;;;;;;;;;;16.40;99.90;;;;;;4989719;28;19965;-84
2022/05/24 08:48:51;;;;;;;;;;;16.70;99.90;;;;;;4975306;28;19920;-83
2022/05/24 08:51:23;;;;;;;;;;;16.80;99.90;;;;;;4967344;28;19910;-84
2022/05/24 08:53:50;;;;;;;;;;;17.00;99.90;;;;;;4974869;28;19925;-83
2022/05/24 08:56:21;;;;;;;;;;;17.40;99.90;;;;;;4976893;28;20378;-83
2022/05/24 08:58:50;;;;;;;;;;;17.70;99.90;;;;;;4978943;28;19965;-83
2022/05/24 09:01:21;;;;;;;;;;;17.80;99.90;;;;;;4977454;28;19926;-83
2022/05/24 09:03:47;;;;;;;;;;;17.80;99.90;;;;;;4978853;28;20271;-83
2022/05/24 09:06:31;;;;;;;;;;;18.00;99.90;;;;;;4978735;28;19937;-84
2022/05/24 09:09:02;;;;;;;;;;;18.20;99.90;;;;;;4978514;28;20390;-83
2022/05/24 09:11:41;;;;;;;;;;;18.00;99.90;;;;;;4978483;28;19911;-83
2022/05/24 09:14:17;;;;;;;;;;;17.60;99.90;;;;;;4978677;28;19911;-83
2022/05/24 09:16:51;;;;;;;;;;;17.40;99.90;;;;;;4978982;28;20004;-83
2022/05/24 09:19:33;;;;;;;;;;;16.80;99.90;;;;;;4978522;28;20278;-84
2022/05/24 09:22:00;;;;;;;;;;;16.50;99.90;;;;;;4978450;28;19918;-83
2022/05/24 09:24:30;;;;;;;;;;;16.30;99.90;;;;;;4961043;28;19914;-83
2022/05/24 09:27:02;;;;;;;;;;;16.40;99.90;;;;;;4978776;28;19914;-83
2022/05/24 09:29:27;;;;;;;;;;;16.50;99.90;;;;;;4978196;28;19917;-83
2022/05/24 09:31:53;;;;;;;;;;;16.60;99.90;;;;;;4977905;28;19910;-83
2022/05/24 09:34:19;;;;;;;;;;;16.90;99.90;;;;;;4978101;28;20274;-83
2022/05/24 09:36:50;;;;;;;;;;;17.20;99.90;;;;;;4978242;28;19916;-83
2022/05/24 09:39:21;;;;;;;;;;;17.40;99.90;;;;;;4978033;28;20452;-83
2022/05/24 09:41:54;;;;;;;;;;;17.80;99.90;;;;;;4978297;28;19925;-83
2022/05/24 09:44:19;;;;;;;;;;;18.00;99.90;;;;;;4978275;28;19914;-83
2022/05/24 09:46:46;;;;;;;;;;;18.00;99.90;;;;;;4978440;28;20384;-84
2022/05/24 09:49:17;;;;;;;;;;;18.10;99.90;;;;;;4977722;28;19953;-83
2022/05/24 09:51:43;;;;;;;;;;;18.10;99.90;;;;;;4977822;28;19917;-83
2022/05/24 09:54:16;;;;;;;;;;;18.00;99.90;;;;;;4978063;28;19997;-83
2022/05/24 09:56:57;;;;;;;;;;;17.80;99.90;;;;;;4977864;28;19910;-83
2022/05/24 09:59:27;;;;;;;;;;;17.60;99.90;;;;;;4976558;28;19957;-83
2022/05/24 10:01:53;;;;;;;;;;;17.80;99.90;;;;;;4960192;28;19919;-83
2022/05/24 10:04:23;;;;;;;;;;;18.00;99.90;;;;;;4977738;28;19941;-84
2022/05/24 10:06:59;;;;;;;;;;;18.30;99.90;;;;;;4977229;28;19996;-83
2022/05/24 10:09:38;;;;;;;;;;;18.70;99.90;;;;;;4977430;28;19910;-84
2022/05/24 10:12:17;;;;;;;;;;;19.30;99.90;;;;;;4977387;28;20421;-84
2022/05/24 10:14:48;;;;;;;;;;;19.20;99.90;;;;;;4977411;28;19910;-84
2022/05/24 10:17:19;;;;;;;;;;;18.90;99.90;;;;;;4977626;28;19973;-84
2022/05/24 10:19:56;;;;;;;;;;;18.30;99.90;;;;;;4977721;28;19933;-83
2022/05/24 10:22:31;;;;;;;;;;;17.50;99.90;;;;;;4976172;28;19933;-83
2022/05/24 10:25:23;;;;;;;;;;;17.10;99.90;;;;;;4977181;28;19965;-83
2022/05/24 10:27:49;;;;;;;;;;;17.00;99.90;;;;;;4954509;28;19914;-83
2022/05/24 10:30:23;;;;;;;;;;;17.00;99.90;;;;;;4975798;28;20392;-83
2022/05/24 10:38:42;;;;;;;;;;;17.80;99.90;;;;;;4977066;28;20029;-83
2022/05/24 10:41:15;;;;;;;;;;;18.20;99.90;;;;;;4976812;28;20313;-83
2022/05/24 10:43:41;;;;;;;;;;;18.20;99.90;;;;;;4976951;28;19933;-83
2022/05/24 10:46:18;;;;;;;;;;;18.30;99.90;;;;;;4976773;28;20362;-82
2022/05/24 10:48:48;;;;;;;;;;;18.60;99.90;;;;;;4977258;28;19910;-83
2022/05/24 10:51:20;;;;;;;;;;;18.50;99.90;;;;;;4976726;28;19918;-83
2022/05/24 10:53:45;;;;;;;;;;;18.50;99.90;;;;;;4976958;28;19969;-83
2022/05/24 10:56:29;;;;;;;;;;;18.80;99.90;;;;;;4976818;28;19910;-83
2022/05/24 10:58:58;;;;;;;;;;;18.70;99.90;;;;;;4976748;28;19910;-83
2022/05/24 11:01:26;;;;;;;;;;;18.30;99.90;;;;;;4976745;28;19964;-83
2022/05/24 11:03:55;;;;;;;;;;;18.10;99.90;;;;;;4977572;28;19910;-84
2022/05/24 11:06:27;;;;;;;;;;;18.20;99.90;;;;;;4976755;28;19996;-83
2022/05/24 11:08:56;;;;;;;;;;;18.50;99.90;;;;;;4976482;28;19910;-83
2022/05/24 11:11:40;;;;;;;;;;;18.70;99.90;;;;;;4976417;28;19910;-84
2022/05/24 11:14:11;;;;;;;;;;;18.90;99.90;;;;;;4976464;28;20332;-84
2022/05/24 11:16:44;;;;;;;;;;;18.60;99.90;;;;;;4976704;28;19936;-83
2022/05/24 11:19:17;;;;;;;;;;;18.70;99.90;;;;;;4976280;28;19914;-83
2022/05/24 11:21:55;;;;;;;;;;;18.90;99.90;;;;;;4976203;28;20012;-83
2022/05/24 11:24:24;;;;;;;;;;;18.80;99.90;;;;;;4976096;28;19910;-84
2022/05/24 11:26:52;;;;;;;;;;;18.90;99.90;;;;;;4976071;28;19910;-83
2022/05/24 11:29:17;;;;;;;;;;;19.10;99.90;;;;;;4975944;28;20335;-84
2022/05/24 11:31:50;;;;;;;;;;;19.40;99.90;;;;;;4976098;28;19946;-83
2022/05/24 11:34:30;;;;;;;;;;;19.10;99.90;;;;;;4975974;28;19914;-83
2022/05/24 11:37:15;;;;;;;;;;;19.00;99.90;;;;;;4976109;28;19910;-84
2022/05/24 11:39:42;;;;;;;;;;;18.90;99.90;;;;;;4975902;28;19921;-84
2022/05/24 11:42:18;;;;;;;;;;;19.10;99.90;;;;;;4976055;28;19918;-83
2022/05/24 11:44:43;;;;;;;;;;;19.20;99.90;;;;;;4975757;28;19917;-83
2022/05/24 11:47:09;;;;;;;;;;;19.20;99.90;;;;;;4975623;28;19910;-84
2022/05/24 11:49:34;;;;;;;;;;;19.10;99.50;;;;;;4975529;28;19910;-84
2022/05/24 11:52:01;;;;;;;;;;;19.30;99.90;;;;;;4974431;28;20271;-83
2022/05/24 11:54:29;;;;;;;;;;;19.30;99.40;;;;;;4975688;28;19910;-83
2022/05/24 11:57:01;;;;;;;;;;;19.40;99.90;;;;;;4974348;28;20045;-84
2022/05/24 11:59:39;;;;;;;;;;;19.80;99.40;;;;;;4975657;28;19964;-84
2022/05/24 12:07:53;;;;;;;;;;;20.00;99.00;;;;;;4975441;28;19933;-84
2022/05/24 12:08:24;;;;;;;;;;;20.10;98.30;;;;;;4975508;28;19917;-84
2022/05/24 12:10:51;;;;;;;;;;;20.10;98.40;;;;;;4970613;28;19910;-83
2022/05/24 12:13:25;;;;;;;;;;;19.90;98.40;;;;;;4975311;28;19917;-84
2022/05/24 12:15:53;;;;;;;;;;;19.90;98.50;;;;;;4975539;28;19937;-83
2022/05/24 12:18:19;;;;;;;;;;;20.10;98.00;;;;;;4975476;28;20399;-83
2022/05/24 12:20:46;;;;;;;;;;;20.10;98.20;;;;;;4975725;28;19914;-83
2022/05/24 12:23:44;;;;;;;;;;;19.80;98.20;;;;;;4975082;28;19917;-84
2022/05/24 12:26:12;;;;;;;;;;;20.20;99.00;;;;;;4942542;28;19910;-84
2022/05/24 12:28:37;;;;;;;;;;;20.40;98.50;;;;;;4975177;28;19933;-84
2022/05/24 12:31:03;;;;;;;;;;;20.20;99.40;;;;;;4974915;28;20361;-83
2022/05/24 12:33:41;;;;;;;;;;;20.00;99.80;;;;;;4975252;28;19910;-83
2022/05/24 12:36:16;;;;;;;;;;;20.20;99.80;;;;;;4975244;28;20286;-84
2022/05/24 12:38:46;;;;;;;;;;;20.00;99.30;;;;;;4973671;28;19953;-83
2022/05/24 12:41:19;;;;;;;;;;;19.50;99.80;;;;;;4974420;28;20353;-83
2022/05/24 12:43:51;;;;;;;;;;;19.30;99.90;;;;;;4974914;28;19953;-83
2022/05/24 12:46:17;;;;;;;;;;;19.20;99.90;;;;;;4974867;28;19953;-83
2022/05/24 12:48:42;;;;;;;;;;;19.10;99.50;;;;;;4974782;28;19933;-83
2022/05/24 12:51:09;;;;;;;;;;;18.90;99.90;;;;;;4957436;28;20290;-83
2022/05/24 12:53:35;;;;;;;;;;;19.00;99.90;;;;;;4974571;28;19910;-83
2022/05/24 12:56:08;;;;;;;;;;;18.90;99.90;;;;;;4974873;28;19911;-83
2022/05/24 12:58:34;;;;;;;;;;;18.80;99.90;;;;;;4974819;28;19933;-83
2022/05/24 13:01:06;;;;;;;;;;;18.70;99.90;;;;;;4974839;28;19922;-83
2022/05/24 13:03:32;;;;;;;;;;;18.80;99.90;;;;;;4974858;28;19910;-83
2022/05/24 13:05:57;;;;;;;;;;;19.20;99.90;;;;;;4974733;28;19910;-84
2022/05/24 13:08:23;;;;;;;;;;;19.40;99.90;;;;;;4974726;28;19917;-83
2022/05/24 13:10:49;;;;;;;;;;;19.50;99.60;;;;;;4957403;28;19914;-83
2022/05/24 13:13:22;;;;;;;;;;;19.80;99.70;;;;;;4974816;28;19953;-84
2022/05/24 13:15:56;;;;;;;;;;;20.10;98.70;;;;;;4974579;28;19910;-84
2022/05/24 13:18:23;;;;;;;;;;;20.10;98.20;;;;;;4974909;28;19945;-84
2022/05/24 13:20:51;;;;;;;;;;;20.20;98.20;;;;;;4974389;28;19926;-84
2022/05/24 13:23:19;;;;;;;;;;;20.30;98.10;;;;;;4974709;28;19911;-84
2022/05/24 13:25:44;;;;;;;;;;;20.20;97.40;;;;;;4974575;28;20001;-83
2022/05/24 13:28:10;;;;;;;;;;;20.60;97.00;;;;;;4973195;28;20005;-84
2022/05/24 13:33:33;;;;;;;;;;;20.50;98.50;;;;;;4974423;28;20385;-83
2022/05/24 13:35:59;;;;;;;;;;;20.70;98.00;;;;;;4974722;28;20416;-84
2022/05/24 13:38:26;;;;;;;;;;;21.10;97.50;;;;;;4974457;28;20290;-83
2022/05/24 13:40:54;;;;;;;;;;;21.00;98.10;;;;;;4974402;28;20398;-84
2022/05/24 13:43:34;;;;;;;;;;;20.80;98.50;;;;;;4977817;28;20377;-84
2022/05/24 13:46:26;;;;;;;;;;;20.80;98.40;;;;;;4977965;28;19917;-83
2022/05/24 13:48:51;;;;;;;;;;;20.50;98.70;;;;;;4974780;28;19910;-84
2022/05/24 13:51:18;;;;;;;;;;;20.10;99.20;;;;;;4978227;28;19933;-83
2022/05/24 13:53:44;;;;;;;;;;;20.20;99.50;;;;;;4977949;28;19910;-83
2022/05/24 13:56:22;;;;;;;;;;;20.40;99.20;;;;;;4977865;28;20438;-83
2022/05/24 13:58:49;;;;;;;;;;;20.40;99.90;;;;;;4977908;28;19910;-83
2022/05/24 14:01:26;;;;;;;;;;;20.80;99.70;;;;;;4960393;28;19918;-84
2022/05/24 14:04:00;;;;;;;;;;;21.00;97.60;;;;;;4977780;28;19917;-83
2022/05/24 14:06:27;;;;;;;;;;;20.80;98.00;;;;;;4977711;28;19921;-83
2022/05/24 14:08:53;;;;;;;;;;;20.50;98.80;;;;;;4977595;28;19917;-83
2022/05/24 14:11:21;;;;;;;;;;;21.10;98.30;;;;;;4977603;28;20325;-84
2022/05/24 14:13:46;;;;;;;;;;;21.40;97.80;;;;;;4977394;28;19910;-84
2022/05/24 14:16:13;;;;;;;;;;;21.70;98.00;;;;;;4977556;28;19974;-84
2022/05/24 14:18:39;;;;;;;;;;;22.00;95.50;;;;;;4977606;28;19910;-83
2022/05/24 14:21:06;;;;;;;;;;;21.60;95.80;;;;;;4977370;28;19918;-84
2022/05/24 14:23:31;;;;;;;;;;;21.30;95.90;;;;;;4977580;28;19917;-84
2022/05/24 14:25:57;;;;;;;;;;;21.50;95.30;;;;;;4977284;28;20286;-84
2022/05/24 14:28:23;;;;;;;;;;;22.30;94.00;;;;;;4977194;28;19917;-84
2022/05/24 14:30:49;;;;;;;;;;;22.70;94.00;;;;;;4977090;28;19910;-84
2022/05/24 14:33:16;;;;;;;;;;;22.80;93.80;;;;;;4977194;28;19921;-84
2022/05/24 14:35:42;;;;;;;;;;;24.10;91.80;;;;;;4977081;28;19996;-84
2022/05/24 14:38:08;;;;;;;;;;;24.60;91.20;;;;;;4977136;28;19910;-84
2022/05/24 14:40:38;;;;;;;;;;;25.20;91.00;;;;;;4976883;28;19922;-84
2022/05/24 14:43:05;;;;;;;;;;;26.10;91.20;;;;;;4977022;28;20282;-84
2022/05/24 14:45:31;;;;;;;;;;;26.20;91.10;;;;;;4976922;28;19910;-84
2022/05/24 14:47:56;;;;;;;;;;;26.40;90.90;;;;;;4976771;28;20005;-85
2022/05/24 14:50:22;;;;;;;;;;;27.20;90.20;;;;;;4976982;28;20322;-85
2022/05/24 14:52:47;;;;;;;;;;;28.00;89.10;;;;;;4974572;28;20023;-84
2022/05/24 14:55:22;;;;;;;;;;;29.30;88.60;;;;;;4976168;28;19914;-84
2022/05/24 14:57:47;;;;;;;;;;;30.30;88.60;;;;;;4976709;28;20289;-84